Time;durP1;ratioP1;P1;durP2;ratioP2;P2;SDS_P1;SDS_P2;PMS_P1;PMS_P2;Temp;Humidity;BMP_temperature;BMP_pressure;BME280_temperature;BME280_humidity;BME280_pressure;Samples;Min_cycle;Max_cycle;Signal;HPM_P1;HPM_P2
2021/01/24 00:00:26;;;;;;;9.20;4.20;;;4.90;73.30;;;;;;5035186;28;20128;-68
2021/01/24 00:02:52;;;;;;;6.95;4.03;;;4.90;73.20;;;;;;5034699;28;20077;-68
2021/01/24 00:05:19;;;;;;;7.55;3.95;;;5.20;73.40;;;;;;5035478;28;20042;-68
2021/01/24 00:07:45;;;;;;;6.40;3.90;;;4.80;73.20;;;;;;5035367;28;20065;-68
2021/01/24 00:10:12;;;;;;;7.68;3.97;;;4.90;73.40;;;;;;5035391;28;20535;-68
2021/01/24 00:12:40;;;;;;;6.78;3.50;;;4.90;73.40;;;;;;5035237;28;20037;-68
2021/01/24 00:15:07;;;;;;;5.28;3.03;;;4.70;73.40;;;;;;5035046;28;20036;-68
2021/01/24 00:17:34;;;;;;;6.80;2.55;;;4.70;73.50;;;;;;5034836;28;20040;-68
2021/01/24 00:20:01;;;;;;;3.58;2.17;;;4.80;73.50;;;;;;5034949;28;20037;-68
2021/01/24 00:22:30;;;;;;;7.00;2.30;;;4.80;73.50;;;;;;5034902;28;20072;-68
2021/01/24 00:24:56;;;;;;;6.72;2.53;;;4.90;73.50;;;;;;5034771;28;20041;-68
2021/01/24 00:27:23;;;;;;;9.50;2.65;;;4.80;73.50;;;;;;5035209;28;20045;-68
2021/01/24 00:29:50;;;;;;;6.20;2.33;;;4.90;73.60;;;;;;5035179;28;20041;-68
2021/01/24 00:32:15;;;;;;;6.47;2.60;;;5.20;73.80;;;;;;5035039;28;20041;-68
2021/01/24 00:34:42;;;;;;;4.10;2.38;;;5.00;73.70;;;;;;5035098;28;20392;-68
2021/01/24 00:37:08;;;;;;;7.95;2.80;;;5.10;73.80;;;;;;5034560;28;20473;-68
2021/01/24 00:39:34;;;;;;;6.55;2.35;;;4.80;73.60;;;;;;5034689;28;20033;-68
2021/01/24 00:42:00;;;;;;;6.82;3.13;;;4.50;73.50;;;;;;5034712;28;20107;-68
2021/01/24 00:44:26;;;;;;;8.48;3.47;;;4.70;73.50;;;;;;5034504;28;20075;-68
2021/01/24 00:46:52;;;;;;;6.50;3.50;;;4.80;73.50;;;;;;5034388;28;20045;-68
2021/01/24 00:49:17;;;;;;;7.20;3.60;;;4.80;73.50;;;;;;5034463;28;20029;-68
2021/01/24 00:51:44;;;;;;;6.25;3.42;;;4.80;73.50;;;;;;5034377;28;20241;-68
2021/01/24 00:54:09;;;;;;;7.70;3.58;;;4.80;73.50;;;;;;5034671;28;20037;-68
2021/01/24 00:56:35;;;;;;;9.48;3.20;;;4.90;73.70;;;;;;5034317;28;20496;-68
2021/01/24 00:59:01;;;;;;;7.90;3.05;;;4.70;73.60;;;;;;5034458;28;20075;-68
2021/01/24 01:01:27;;;;;;;11.65;3.55;;;4.80;73.70;;;;;;5034199;28;20045;-68
2021/01/24 01:03:52;;;;;;;7.20;3.15;;;4.90;73.80;;;;;;5034552;28;20053;-68
2021/01/24 01:06:18;;;;;;;5.68;3.20;;;4.80;73.80;;;;;;5034286;28;20144;-68
2021/01/24 01:08:44;;;;;;;9.27;4.80;;;5.00;74.00;;;;;;5034275;28;20513;-68
2021/01/24 01:11:10;;;;;;;14.52;7.90;;;4.60;73.60;;;;;;5034314;28;20091;-68
2021/01/24 01:13:36;;;;;;;14.82;9.20;;;4.40;73.50;;;;;;5033952;28;20037;-68
2021/01/24 01:16:02;;;;;;;17.83;9.25;;;4.70;73.80;;;;;;5034216;28;20408;-68
2021/01/24 01:18:29;;;;;;;12.13;8.32;;;4.60;73.70;;;;;;5034130;28;20081;-68
2021/01/24 01:20:56;;;;;;;16.20;10.35;;;4.30;73.50;;;;;;5034008;28;20033;-68
2021/01/24 01:23:21;;;;;;;13.63;7.32;;;4.00;73.40;;;;;;5034139;28;20111;-68
2021/01/24 01:25:50;;;;;;;8.88;4.05;;;4.10;73.50;;;;;;5033966;28;20480;-68
2021/01/24 01:28:15;;;;;;;6.70;3.65;;;4.40;73.70;;;;;;5034446;28;20073;-68
2021/01/24 01:30:41;;;;;;;8.50;3.78;;;4.50;73.90;;;;;;5034064;28;20061;-68
2021/01/24 01:33:07;;;;;;;13.07;7.03;;;4.50;73.90;;;;;;5033837;28;20542;-68
2021/01/24 01:35:33;;;;;;;18.10;9.07;;;5.00;74.10;;;;;;5033790;28;20399;-68
2021/01/24 01:37:59;;;;;;;14.88;9.52;;;4.30;73.70;;;;;;5034070;28;20037;-68
2021/01/24 01:40:24;;;;;;;18.20;9.15;;;4.30;73.60;;;;;;5034224;28;20088;-68
2021/01/24 01:42:50;;;;;;;18.40;11.63;;;4.30;73.70;;;;;;5033819;28;20082;-68
2021/01/24 01:45:16;;;;;;;14.65;9.20;;;4.30;73.80;;;;;;5033820;28;20045;-68
2021/01/24 01:47:42;;;;;;;11.45;7.28;;;4.20;73.80;;;;;;5033632;28;20049;-68
2021/01/24 01:50:08;;;;;;;12.02;7.30;;;4.10;73.70;;;;;;5033852;28;20485;-68
2021/01/24 01:52:34;;;;;;;15.82;8.90;;;4.20;73.70;;;;;;5033824;28;20493;-68
2021/01/24 01:55:00;;;;;;;11.43;7.97;;;4.20;73.80;;;;;;5034184;28;20100;-68
2021/01/24 01:57:26;;;;;;;15.82;9.65;;;4.20;73.90;;;;;;5033597;28;20050;-68
2021/01/24 01:59:52;;;;;;;17.60;8.27;;;3.90;73.80;;;;;;5033457;28;20033;-68
2021/01/24 02:02:48;;;;;;;16.15;8.75;;;4.30;74.10;;;;;;5033572;28;20408;-68
2021/01/24 02:05:31;;;;;;;8.98;6.05;;;4.40;74.10;;;;;;5033712;28;20044;-68
2021/01/24 02:08:04;;;;;;;22.17;11.18;;;4.10;73.90;;;;;;5033597;28;20489;-68
2021/01/24 02:10:39;;;;;;;17.67;11.38;;;4.30;74.00;;;;;;5033923;28;20034;-68
2021/01/24 02:13:13;;;;;;;20.50;11.95;;;4.20;73.90;;;;;;5033725;28;20088;-68
2021/01/24 02:15:42;;;;;;;17.85;10.77;;;4.10;73.70;;;;;;5033763;28;20037;-68
2021/01/24 02:18:10;;;;;;;15.45;9.48;;;4.00;73.70;;;;;;5033648;28;20049;-68
2021/01/24 02:21:15;;;;;;;18.02;9.63;;;4.30;74.00;;;;;;5033869;28;20064;-68
2021/01/24 02:23:42;;;;;;;15.07;8.23;;;4.10;73.80;;;;;;5033941;28;20033;-68
2021/01/24 02:26:08;;;;;;;14.25;8.52;;;4.30;74.00;;;;;;5037090;28;20396;-68
2021/01/24 02:28:46;;;;;;;15.48;9.48;;;3.90;73.80;;;;;;5037187;28;20041;-68
2021/01/24 02:31:14;;;;;;;16.40;9.32;;;4.40;74.20;;;;;;5037362;28;20041;-68
2021/01/24 02:33:40;;;;;;;15.90;9.20;;;4.10;74.10;;;;;;5037275;28;20079;-68
2021/01/24 02:36:09;;;;;;;17.52;9.30;;;4.30;74.20;;;;;;5037043;28;20045;-68
2021/01/24 02:38:38;;;;;;;12.73;8.13;;;4.20;74.10;;;;;;5037493;28;20053;-68
2021/01/24 02:41:08;;;;;;;14.20;9.60;;;4.70;74.30;;;;;;5037079;28;20037;-68
2021/01/24 02:43:34;;;;;;;13.15;8.90;;;4.10;74.10;;;;;;5037289;28;20040;-68
2021/01/24 02:46:01;;;;;;;14.70;9.40;;;4.30;74.10;;;;;;5036744;28;20042;-68
2021/01/24 02:48:27;;;;;;;15.40;9.00;;;4.30;74.10;;;;;;5036845;28;20042;-68
2021/01/24 02:50:53;;;;;;;13.65;9.88;;;4.40;74.20;;;;;;5037025;28;20493;-68
2021/01/24 02:53:20;;;;;;;12.43;8.70;;;4.40;74.30;;;;;;5037138;28;20044;-68
2021/01/24 02:55:47;;;;;;;14.98;9.90;;;4.00;74.00;;;;;;5036933;28;20076;-68
2021/01/24 02:58:14;;;;;;;14.88;8.45;;;4.10;74.10;;;;;;5037078;28;20120;-68
2021/01/24 03:00:40;;;;;;;14.10;9.23;;;4.30;74.20;;;;;;5037110;28;20033;-68
2021/01/24 03:03:06;;;;;;;13.73;9.38;;;4.20;74.10;;;;;;5036467;28;20389;-68
2021/01/24 03:05:32;;;;;;;15.82;10.20;;;4.10;74.00;;;;;;5036391;28;20041;-68
2021/01/24 03:07:58;;;;;;;12.93;9.35;;;3.90;73.90;;;;;;5036582;28;20400;-68
2021/01/24 03:10:25;;;;;;;15.75;10.13;;;4.30;74.20;;;;;;5036578;28;20243;-68
2021/01/24 03:13:17;;;;;;;14.60;9.30;;;3.70;73.70;;;;;;5036519;28;20148;-68
2021/01/24 03:15:46;;;;;;;14.82;9.82;;;4.30;74.10;;;;;;5036055;28;20120;-68
2021/01/24 03:18:18;;;;;;;14.68;9.75;;;4.20;74.10;;;;;;5036269;28;20579;-68
2021/01/24 03:20:46;;;;;;;14.10;9.95;;;4.30;74.20;;;;;;5036125;28;20033;-68
2021/01/24 03:23:13;;;;;;;14.80;10.05;;;4.30;74.30;;;;;;5036146;28;20045;-68
2021/01/24 03:25:40;;;;;;;13.93;9.90;;;3.60;73.90;;;;;;5035933;28;20037;-68
2021/01/24 03:28:07;;;;;;;17.13;10.13;;;4.10;74.10;;;;;;5035965;28;20573;-68
2021/01/24 03:30:34;;;;;;;15.60;10.45;;;4.00;74.10;;;;;;5036247;28;20036;-68
2021/01/24 03:33:00;;;;;;;18.50;10.43;;;3.80;74.00;;;;;;5036183;28;20134;-68
2021/01/24 03:35:26;;;;;;;15.95;9.90;;;4.20;74.30;;;;;;5035399;28;20037;-69
2021/01/24 03:37:52;;;;;;;13.65;9.52;;;4.20;74.30;;;;;;5035134;28;20107;-69
2021/01/24 03:40:18;;;;;;;14.63;8.40;;;4.20;74.40;;;;;;5035937;28;20060;-69
2021/01/24 03:42:43;;;;;;;13.52;8.68;;;4.40;74.60;;;;;;5036007;28;20068;-69
2021/01/24 03:45:10;;;;;;;17.15;8.18;;;4.00;74.50;;;;;;5035281;28;20380;-69
2021/01/24 03:47:36;;;;;;;14.38;8.18;;;4.50;74.70;;;;;;5035709;28;20037;-69
2021/01/24 03:50:03;;;;;;;13.63;8.10;;;4.10;74.60;;;;;;5035145;28;20116;-69
2021/01/24 03:52:29;;;;;;;13.40;8.50;;;4.50;74.80;;;;;;5035735;28;20037;-69
2021/01/24 03:54:55;;;;;;;11.13;7.75;;;4.40;74.70;;;;;;5035397;28;20033;-69
2021/01/24 03:57:21;;;;;;;11.35;7.40;;;4.70;75.00;;;;;;5035587;28;20091;-69
2021/01/24 03:59:51;;;;;;;11.20;7.15;;;4.70;75.20;;;;;;5035877;28;20037;-69
2021/01/24 04:02:17;;;;;;;12.35;7.75;;;4.70;75.20;;;;;;5034897;28;20049;-69
2021/01/24 04:04:44;;;;;;;9.45;6.88;;;4.60;75.20;;;;;;5035301;28;20389;-69
2021/01/24 04:07:10;;;;;;;12.65;7.80;;;4.80;75.40;;;;;;5035373;28;20513;-69
2021/01/24 04:09:36;;;;;;;14.40;7.85;;;4.80;75.30;;;;;;5035346;28;20104;-69
2021/01/24 04:12:02;;;;;;;10.10;7.28;;;4.90;75.40;;;;;;5035559;28;20524;-69
2021/01/24 04:14:28;;;;;;;11.02;7.72;;;4.80;75.40;;;;;;5035299;28;20042;-69
2021/01/24 04:16:53;;;;;;;11.70;7.28;;;4.90;75.50;;;;;;5035023;28;20501;-69
2021/01/24 04:19:19;;;;;;;11.70;7.80;;;5.00;75.50;;;;;;5035160;28;20047;-69
2021/01/24 04:21:45;;;;;;;12.88;8.02;;;5.00;75.30;;;;;;5034885;28;20517;-69
2021/01/24 04:24:11;;;;;;;14.07;7.50;;;5.40;75.40;;;;;;5035140;28;20042;-69
2021/01/24 04:26:37;;;;;;;15.13;9.00;;;4.80;74.90;;;;;;5034961;28;20045;-69
2021/01/24 04:29:03;;;;;;;14.73;8.25;;;4.90;75.10;;;;;;5035245;28;20042;-69
2021/01/24 04:31:29;;;;;;;13.60;7.95;;;5.00;75.20;;;;;;5035285;28;20051;-69
2021/01/24 04:33:54;;;;;;;15.45;9.13;;;5.20;75.30;;;;;;5034735;28;20037;-69
2021/01/24 04:36:20;;;;;;;14.50;9.27;;;4.90;75.20;;;;;;5034744;28;20052;-69
2021/01/24 04:38:46;;;;;;;16.95;10.30;;;4.80;75.20;;;;;;5035099;28;20033;-69
2021/01/24 04:41:13;;;;;;;14.82;8.95;;;4.80;75.20;;;;;;5034873;28;20508;-69
2021/01/24 04:43:39;;;;;;;15.82;9.70;;;4.80;75.80;;;;;;5034520;28;20041;-69
2021/01/24 04:46:06;;;;;;;11.80;8.65;;;4.80;75.20;;;;;;5034900;28;20045;-69
2021/01/24 04:48:32;;;;;;;12.75;9.80;;;4.70;75.20;;;;;;5034775;28;20034;-71
2021/01/24 04:50:58;;;;;;;13.48;8.82;;;4.70;75.10;;;;;;5033721;28;20091;-69
2021/01/24 04:53:25;;;;;;;12.23;9.02;;;4.50;75.20;;;;;;5034800;28;20044;-69
2021/01/24 04:55:51;;;;;;;16.10;9.70;;;4.70;75.50;;;;;;5034355;28;20505;-69
2021/01/24 04:58:17;;;;;;;15.15;9.57;;;4.80;75.70;;;;;;5034277;28;20040;-69
2021/01/24 05:00:43;;;;;;;16.35;9.13;;;4.80;75.90;;;;;;5034878;28;20041;-69
2021/01/24 05:03:09;;;;;;;15.45;9.80;;;4.80;76.40;;;;;;5016511;28;20496;-68
2021/01/24 05:05:35;;;;;;;13.02;8.70;;;5.10;76.90;;;;;;5034293;28;20037;-68
2021/01/24 05:08:01;;;;;;;14.82;8.40;;;5.10;76.90;;;;;;5034431;28;20072;-68
2021/01/24 05:10:29;;;;;;;11.77;7.80;;;5.20;77.10;;;;;;5034332;28;20048;-68
2021/01/24 05:12:56;;;;;;;11.27;7.22;;;5.20;77.00;;;;;;5034247;28;20060;-68
2021/01/24 05:15:22;;;;;;;13.60;7.28;;;5.60;77.20;;;;;;5034083;28;20128;-68
2021/01/24 05:17:57;;;;;;;10.02;7.03;;;5.60;77.20;;;;;;5034398;28;20034;-68
2021/01/24 05:20:33;;;;;;;10.40;6.30;;;5.70;77.30;;;;;;5034325;28;20132;-68
2021/01/24 05:23:04;;;;;;;10.00;6.32;;;5.80;77.30;;;;;;5033956;28;20262;-67
2021/01/24 05:25:32;;;;;;;9.80;5.78;;;5.90;77.40;;;;;;5033729;28;20132;-67
2021/01/24 05:28:16;;;;;;;10.18;5.80;;;6.00;77.50;;;;;;5033935;28;20045;-67
2021/01/24 05:30:42;;;;;;;12.25;5.68;;;6.10;77.60;;;;;;5034227;28;20037;-68
2021/01/24 05:33:07;;;;;;;12.60;5.68;;;6.10;77.50;;;;;;5034077;28;20037;-68
2021/01/24 05:35:49;;;;;;;11.00;5.35;;;6.20;77.50;;;;;;5033844;28;20366;-67
2021/01/24 05:38:29;;;;;;;11.05;5.30;;;6.20;77.60;;;;;;5033660;28;20048;-67
2021/01/24 05:40:59;;;;;;;7.38;4.40;;;6.20;77.60;;;;;;5034172;28;20076;-67
2021/01/24 05:43:26;;;;;;;7.70;4.20;;;6.10;77.60;;;;;;5034283;28;20092;-67
2021/01/24 05:45:53;;;;;;;8.20;4.30;;;6.30;77.80;;;;;;5034036;28;20055;-66
2021/01/24 05:48:20;;;;;;;7.68;3.45;;;6.10;77.70;;;;;;5033962;28;20037;-68
2021/01/24 05:50:46;;;;;;;9.65;3.42;;;6.30;77.80;;;;;;5033638;28;20049;-68
2021/01/24 05:53:13;;;;;;;5.53;3.35;;;6.30;77.90;;;;;;5033900;28;20064;-68
2021/01/24 05:55:40;;;;;;;9.35;3.85;;;6.50;78.00;;;;;;5033689;28;20041;-68
2021/01/24 05:58:21;;;;;;;5.72;3.25;;;6.50;78.10;;;;;;5034053;28;20034;-68
2021/01/24 06:00:48;;;;;;;7.32;3.10;;;6.50;78.00;;;;;;5033508;28;20041;-68
2021/01/24 06:03:15;;;;;;;7.15;2.90;;;6.40;78.60;;;;;;5033701;28;20497;-68
2021/01/24 06:05:42;;;;;;;6.20;2.60;;;6.30;78.50;;;;;;5033461;28;20072;-68
2021/01/24 06:08:09;;;;;;;6.13;2.75;;;6.40;78.80;;;;;;5034042;28;20095;-68
2021/01/24 06:10:36;;;;;;;6.05;3.00;;;6.50;78.80;;;;;;5033915;28;20029;-68
2021/01/24 06:13:04;;;;;;;8.60;3.40;;;6.50;78.60;;;;;;5033806;28;20052;-67
2021/01/24 06:15:31;;;;;;;5.97;3.40;;;6.60;78.80;;;;;;5033537;28;20135;-68
2021/01/24 06:17:59;;;;;;;7.53;3.03;;;6.30;78.50;;;;;;5033607;28;20045;-68
2021/01/24 06:20:37;;;;;;;9.00;3.33;;;6.50;78.70;;;;;;5033748;28;20041;-68
2021/01/24 06:23:07;;;;;;;7.35;3.38;;;6.60;78.60;;;;;;5033701;28;20473;-68
2021/01/24 06:25:36;;;;;;;7.50;2.90;;;6.50;78.50;;;;;;5033624;28;20041;-68
2021/01/24 06:28:09;;;;;;;7.57;2.60;;;6.70;78.50;;;;;;5033548;28;20145;-68
2021/01/24 06:30:37;;;;;;;6.85;2.72;;;6.60;78.50;;;;;;5032419;28;20122;-68
2021/01/24 06:33:13;;;;;;;8.25;3.17;;;6.60;78.40;;;;;;5045076;28;20124;-68
2021/01/24 06:35:56;;;;;;;7.32;3.10;;;6.60;78.40;;;;;;5039696;28;20041;-66
2021/01/24 06:38:38;;;;;;;5.25;2.50;;;6.40;78.50;;;;;;5053112;28;20431;-66
2021/01/24 06:41:07;;;;;;;4.40;2.08;;;6.60;78.70;;;;;;5053430;28;20041;-67
2021/01/24 06:43:50;;;;;;;3.47;1.65;;;6.70;78.80;;;;;;5037769;28;20045;-66
2021/01/24 06:46:19;;;;;;;3.60;1.65;;;6.70;79.00;;;;;;5033359;28;20068;-67
2021/01/24 06:48:50;;;;;;;5.38;1.38;;;6.60;78.90;;;;;;5040417;28;20047;-66
2021/01/24 06:51:35;;;;;;;3.53;1.10;;;6.60;79.10;;;;;;5052932;28;20033;-66
2021/01/24 06:54:14;;;;;;;2.88;0.90;;;6.70;79.20;;;;;;5053166;28;20032;-66
2021/01/24 06:56:45;;;;;;;4.78;1.23;;;6.80;79.40;;;;;;5053371;28;20049;-66
2021/01/24 06:59:12;;;;;;;2.92;0.50;;;6.60;79.60;;;;;;5053198;28;20041;-66
2021/01/24 07:01:43;;;;;;;2.83;1.05;;;6.70;79.90;;;;;;5053132;28;20503;-67
2021/01/24 07:04:20;;;;;;;4.32;0.63;;;6.80;80.00;;;;;;5052679;28;20044;-66
2021/01/24 07:06:48;;;;;;;3.08;0.80;;;6.90;80.30;;;;;;5052411;28;20077;-66
2021/01/24 07:09:25;;;;;;;3.33;0.50;;;7.00;80.40;;;;;;5052939;28;20040;-66
2021/01/24 07:12:03;;;;;;;3.15;0.50;;;7.10;80.40;;;;;;5053425;28;20222;-66
2021/01/24 07:14:35;;;;;;;3.63;0.30;;;7.00;80.30;;;;;;5056018;28;20796;-66
2021/01/24 07:17:07;;;;;;;2.25;0.30;;;7.20;80.50;;;;;;5056306;28;20044;-66
2021/01/24 07:19:37;;;;;;;1.65;0.50;;;7.20;80.40;;;;;;5056294;28;20042;-66
2021/01/24 07:22:04;;;;;;;1.67;0.50;;;7.30;80.50;;;;;;5056154;28;20119;-67
2021/01/24 07:24:31;;;;;;;1.70;0.30;;;7.30;80.50;;;;;;5054838;28;20045;-67
2021/01/24 07:26:57;;;;;;;0.50;0.10;;;7.40;80.50;;;;;;5035921;28;20045;-66
2021/01/24 07:29:24;;;;;;;2.50;0.30;;;7.40;80.30;;;;;;5035930;28;20096;-67
2021/01/24 07:31:50;;;;;;;2.05;0.20;;;7.50;80.30;;;;;;5036208;28;20056;-66
2021/01/24 07:34:21;;;;;;;1.38;0.10;;;7.40;80.00;;;;;;5036082;28;20045;-66
2021/01/24 07:36:47;;;;;;;1.85;0.25;;;7.50;79.80;;;;;;5035802;28;20099;-67
2021/01/24 07:39:13;;;;;;;3.28;0.57;;;7.50;79.70;;;;;;5035872;28;20189;-67
2021/01/24 07:41:39;;;;;;;1.23;0.35;;;7.40;79.70;;;;;;5036066;28;20050;-67
2021/01/24 07:44:06;;;;;;;3.20;0.80;;;7.30;79.70;;;;;;5035837;28;20071;-67
2021/01/24 07:46:32;;;;;;;5.38;2.45;;;7.20;79.70;;;;;;5035902;28;20103;-66
2021/01/24 07:48:57;;;;;;;5.35;2.78;;;7.30;79.80;;;;;;5035608;28;20413;-67
2021/01/24 07:51:24;;;;;;;9.43;4.38;;;7.20;79.80;;;;;;5035781;28;20037;-67
2021/01/24 07:53:50;;;;;;;6.30;2.70;;;7.50;80.50;;;;;;5035479;28;20069;-67
2021/01/24 07:56:16;;;;;;;7.43;3.10;;;7.40;79.80;;;;;;5036065;28;20045;-67
2021/01/24 07:58:42;;;;;;;9.15;3.72;;;7.40;79.90;;;;;;5035940;28;20091;-66
2021/01/24 08:01:10;;;;;;;12.25;4.65;;;7.30;79.90;;;;;;5035511;28;20440;-67
2021/01/24 08:03:37;;;;;;;8.40;3.17;;;7.10;79.70;;;;;;5035333;28;20110;-67
2021/01/24 08:06:13;;;;;;;7.40;2.78;;;7.30;80.00;;;;;;5035634;28;20103;-67
2021/01/24 08:08:41;;;;;;;14.13;5.03;;;7.30;80.00;;;;;;5036096;28;20053;-67
2021/01/24 08:11:07;;;;;;;10.38;5.10;;;7.40;79.90;;;;;;5035635;28;20068;-67
2021/01/24 08:13:34;;;;;;;11.57;4.88;;;7.40;79.80;;;;;;5035661;28;20476;-67
2021/01/24 08:16:03;;;;;;;9.75;4.60;;;7.30;80.00;;;;;;5035595;28;20118;-67
2021/01/24 08:18:31;;;;;;;8.63;3.42;;;7.40;80.20;;;;;;5047113;28;20072;-67
2021/01/24 08:20:57;;;;;;;7.60;3.50;;;7.40;80.20;;;;;;5054609;28;20083;-67
2021/01/24 08:23:27;;;;;;;5.88;2.97;;;7.30;80.10;;;;;;5037394;28;20435;-67
2021/01/24 08:25:53;;;;;;;8.68;4.60;;;7.40;80.10;;;;;;5055087;28;20128;-67
2021/01/24 08:28:21;;;;;;;10.77;6.00;;;7.40;80.20;;;;;;5055048;28;20507;-67
2021/01/24 08:30:47;;;;;;;9.13;4.47;;;7.40;80.20;;;;;;5055016;28;20047;-67
2021/01/24 08:33:18;;;;;;;9.32;5.00;;;7.50;80.30;;;;;;5055271;28;20420;-67
2021/01/24 08:35:44;;;;;;;9.30;4.43;;;7.60;80.40;;;;;;5054441;28;20047;-67
2021/01/24 08:38:12;;;;;;;8.88;5.38;;;7.80;80.60;;;;;;5055142;28;20484;-67
2021/01/24 08:40:39;;;;;;;9.32;5.03;;;8.00;80.60;;;;;;5054862;28;20079;-67
2021/01/24 08:43:06;;;;;;;6.65;4.28;;;8.20;80.60;;;;;;5054549;28;20045;-67
2021/01/24 08:45:32;;;;;;;4.05;2.28;;;9.50;81.00;;;;;;5055114;28;20052;-68
2021/01/24 08:48:00;;;;;;;3.10;1.58;;;11.60;80.30;;;;;;5054917;28;20078;-67
2021/01/24 08:50:33;;;;;;;2.80;1.75;;;11.80;78.00;;;;;;5054571;28;20032;-67
2021/01/24 08:53:04;;;;;;;3.88;1.80;;;11.30;76.60;;;;;;5054701;28;20037;-67
2021/01/24 08:55:30;;;;;;;2.83;1.20;;;11.00;76.20;;;;;;5054809;28;20041;-68
2021/01/24 08:57:56;;;;;;;2.45;1.10;;;10.90;76.30;;;;;;5054177;28;20045;-69
2021/01/24 09:00:23;;;;;;;2.40;1.00;;;11.30;76.60;;;;;;5054230;28;20511;-68
2021/01/24 09:02:50;;;;;;;2.83;0.50;;;11.20;76.00;;;;;;5039848;28;20064;-68
2021/01/24 09:05:35;;;;;;;2.67;0.50;;;11.00;75.90;;;;;;5034209;28;20091;-69
2021/01/24 09:08:01;;;;;;;;;;;11.70;76.40;;;;;;5034993;28;20132;-68
2021/01/24 09:10:30;;;;;;;2.47;0.50;;;11.50;76.60;;;;;;5034318;28;19913;-69
2021/01/24 09:12:58;;;;;;;1.20;0.40;;;11.30;75.20;;;;;;5034349;28;20037;-68
2021/01/24 09:15:26;;;;;;;2.45;0.50;;;11.20;75.00;;;;;;5034083;28;20033;-69
2021/01/24 09:17:54;;;;;;;2.20;0.50;;;11.00;74.80;;;;;;5034031;28;20514;-68
2021/01/24 09:20:21;;;;;;;2.42;0.40;;;12.20;75.30;;;;;;5034311;28;20049;-69
2021/01/24 09:22:48;;;;;;;1.10;0.40;;;14.10;74.50;;;;;;5034500;28;20035;-69
2021/01/24 09:25:14;;;;;;;1.17;0.32;;;15.30;72.30;;;;;;5034447;28;20090;-69
2021/01/24 09:27:40;;;;;;;2.22;0.50;;;16.40;70.20;;;;;;5034555;28;20041;-69
2021/01/24 09:30:09;;;;;;;1.88;0.20;;;16.90;67.80;;;;;;5034112;28;20116;-69
2021/01/24 09:32:35;;;;;;;2.75;0.50;;;16.10;65.90;;;;;;5034090;28;20053;-69
2021/01/24 09:35:01;;;;;;;2.90;0.60;;;15.70;66.10;;;;;;5033685;28;20362;-68
2021/01/24 09:37:27;;;;;;;2.40;0.13;;;15.00;66.10;;;;;;5033751;28;20064;-69
2021/01/24 09:39:52;;;;;;;2.92;0.50;;;14.50;66.50;;;;;;5034324;28;20451;-69
2021/01/24 09:42:18;;;;;;;2.25;0.25;;;14.90;67.90;;;;;;5038805;28;20095;-69
2021/01/24 09:44:44;;;;;;;0.65;0.10;;;14.90;68.30;;;;;;5042367;28;20555;-68
2021/01/24 09:47:10;;;;;;;0.60;0.00;;;14.80;69.00;;;;;;5042764;28;20041;-68
2021/01/24 09:49:36;;;;;;;3.03;0.10;;;14.70;70.20;;;;;;5043773;28;20508;-68
2021/01/24 09:52:02;;;;;;;4.97;0.30;;;14.50;70.50;;;;;;5036383;28;20037;-68
2021/01/24 09:54:27;;;;;;;1.60;0.38;;;14.30;70.20;;;;;;5045192;28;20033;-68
2021/01/24 09:56:54;;;;;;;1.17;0.25;;;14.00;69.50;;;;;;5043763;28;20069;-69
2021/01/24 09:59:20;;;;;;;1.48;0.20;;;13.50;69.00;;;;;;5032278;28;20077;-68
2021/01/24 10:01:46;;;;;;;0.90;0.10;;;13.10;69.40;;;;;;5032997;28;20045;-67
2021/01/24 10:04:13;;;;;;;1.08;0.10;;;12.90;71.00;;;;;;5033006;28;20400;-68
2021/01/24 10:06:39;;;;;;;2.20;0.20;;;13.00;72.40;;;;;;5032890;28;20041;-68
2021/01/24 10:09:06;;;;;;;2.47;0.20;;;13.00;72.80;;;;;;5033169;28;20606;-68
2021/01/24 10:11:32;;;;;;;0.77;0.70;;;13.10;73.10;;;;;;5033034;28;20119;-68
2021/01/24 10:13:59;;;;;;;1.73;0.25;;;13.40;72.60;;;;;;5037385;28;20132;-68
2021/01/24 10:16:25;;;;;;;1.60;0.20;;;13.40;71.50;;;;;;5052900;28;20044;-68
2021/01/24 10:18:51;;;;;;;1.45;0.20;;;13.20;70.80;;;;;;5052247;28;20037;-68
2021/01/24 10:21:16;;;;;;;1.63;0.20;;;13.10;70.70;;;;;;5052799;28;20511;-68
2021/01/24 10:23:42;;;;;;;0.73;0.17;;;13.00;70.60;;;;;;5052851;28;20056;-68
2021/01/24 10:26:08;;;;;;;2.58;0.40;;;13.10;70.30;;;;;;5053068;28;20047;-68
2021/01/24 10:28:34;;;;;;;2.40;0.60;;;12.80;69.90;;;;;;5051438;28;20044;-68
2021/01/24 10:31:01;;;;;;;2.50;0.50;;;12.80;69.80;;;;;;5049544;28;20508;-68
2021/01/24 10:33:27;;;;;;;1.88;0.50;;;12.70;70.00;;;;;;5049860;28;20441;-69
2021/01/24 10:35:53;;;;;;;1.50;0.30;;;12.60;70.10;;;;;;5053274;28;20045;-67
2021/01/24 10:38:22;;;;;;;5.15;0.40;;;12.30;69.90;;;;;;5053133;28;20040;-67
2021/01/24 10:40:49;;;;;;;2.95;0.50;;;12.40;70.20;;;;;;5053097;28;20036;-67
2021/01/24 10:43:16;;;;;;;2.40;0.90;;;12.30;70.10;;;;;;5053386;28;20048;-68
2021/01/24 10:45:42;;;;;;;2.58;0.50;;;12.40;70.30;;;;;;5046911;28;20042;-68
2021/01/24 10:48:08;;;;;;;4.13;0.88;;;12.60;70.40;;;;;;5037006;28;20076;-69
2021/01/24 10:50:38;;;;;;;1.15;0.30;;;12.50;70.30;;;;;;5036776;28;20045;-68
2021/01/24 10:53:07;;;;;;;2.20;0.25;;;12.30;70.20;;;;;;5040176;28;20061;-68
2021/01/24 10:55:35;;;;;;;5.93;1.38;;;12.20;70.70;;;;;;5045692;28;20151;-68
2021/01/24 10:58:01;;;;;;;3.60;1.20;;;12.20;70.80;;;;;;5043105;28;20547;-68
2021/01/24 11:00:28;;;;;;;2.67;0.63;;;12.20;70.80;;;;;;5048795;28;20033;-69
2021/01/24 11:02:54;;;;;;;2.13;0.40;;;12.10;71.00;;;;;;5040532;28;20057;-68
2021/01/24 11:05:20;;;;;;;4.30;0.40;;;12.10;70.90;;;;;;5048745;28;20035;-69
2021/01/24 11:07:46;;;;;;;3.63;0.40;;;12.00;70.60;;;;;;5056713;28;20048;-69
2021/01/24 11:10:12;;;;;;;2.80;0.30;;;11.90;70.60;;;;;;5057004;28;20041;-68
2021/01/24 11:12:38;;;;;;;2.70;0.40;;;12.30;70.60;;;;;;5057189;28;20041;-69
2021/01/24 11:15:05;;;;;;;1.77;0.30;;;12.20;70.70;;;;;;5056808;28;20039;-69
2021/01/24 11:17:31;;;;;;;1.77;0.30;;;12.20;70.60;;;;;;5056969;28;20051;-68
2021/01/24 11:19:57;;;;;;;2.60;0.30;;;12.30;70.60;;;;;;5057059;28;20037;-69
2021/01/24 11:22:23;;;;;;;2.17;0.43;;;12.30;70.40;;;;;;5056421;28;20090;-69
2021/01/24 11:24:49;;;;;;;2.33;0.20;;;12.40;70.20;;;;;;5056755;28;20037;-70
2021/01/24 11:27:15;;;;;;;3.53;0.30;;;12.40;70.20;;;;;;5056798;28;20577;-70
2021/01/24 11:29:42;;;;;;;3.13;0.20;;;12.40;70.30;;;;;;5056676;28;20551;-70
2021/01/24 11:32:08;;;;;;;2.80;0.20;;;12.40;70.20;;;;;;5056444;28;20090;-70
2021/01/24 11:34:39;;;;;;;1.65;0.30;;;12.40;70.20;;;;;;5056757;28;20265;-72
2021/01/24 11:37:06;;;;;;;2.70;0.20;;;12.40;70.00;;;;;;5056283;28;20499;-69
2021/01/24 11:39:33;;;;;;;1.73;0.20;;;12.40;70.10;;;;;;5056615;28;20029;-69
2021/01/24 11:41:58;;;;;;;2.05;0.20;;;12.30;70.10;;;;;;5055424;28;20037;-69
2021/01/24 11:44:25;;;;;;;3.47;0.35;;;12.30;70.00;;;;;;5056020;28;20526;-68
2021/01/24 11:46:52;;;;;;;2.40;0.20;;;12.30;69.90;;;;;;5056108;28;20053;-68
2021/01/24 11:49:18;;;;;;;1.98;0.20;;;12.20;69.80;;;;;;5055788;28;20041;-68
2021/01/24 11:51:44;;;;;;;3.75;0.50;;;12.00;69.70;;;;;;5056017;28;20036;-68
2021/01/24 11:54:10;;;;;;;4.45;1.05;;;12.00;69.70;;;;;;5055824;28;20033;-68
2021/01/24 11:56:36;;;;;;;2.42;0.68;;;12.00;69.70;;;;;;5056061;28;20051;-68
2021/01/24 11:59:02;;;;;;;2.92;0.35;;;12.00;69.60;;;;;;5055567;28;20040;-68
2021/01/24 12:01:28;;;;;;;4.38;0.93;;;12.10;69.50;;;;;;5055720;28;20099;-69
2021/01/24 12:03:54;;;;;;;4.95;1.45;;;12.20;69.30;;;;;;5055274;28;20052;-68
2021/01/24 12:06:20;;;;;;;4.78;1.60;;;12.40;69.20;;;;;;5055450;28;20037;-68
2021/01/24 12:08:46;;;;;;;2.75;0.68;;;12.70;69.10;;;;;;5055702;28;20399;-68
2021/01/24 12:11:12;;;;;;;3.88;1.33;;;12.70;68.90;;;;;;5055480;28;20033;-69
2021/01/24 12:13:37;;;;;;;1.85;0.52;;;12.90;68.80;;;;;;5055346;28;20040;-68
2021/01/24 12:16:04;;;;;;;7.10;1.90;;;12.80;68.30;;;;;;5055125;28;20401;-68
2021/01/24 12:18:29;;;;;;;3.65;0.30;;;12.90;68.10;;;;;;5052538;28;20083;-69
2021/01/24 12:20:55;;;;;;;3.22;0.47;;;12.90;67.90;;;;;;5051444;28;20134;-69
2021/01/24 12:23:22;;;;;;;4.63;0.47;;;12.90;67.70;;;;;;5054129;28;20041;-69
2021/01/24 12:25:48;;;;;;;2.95;0.90;;;12.90;67.50;;;;;;5055056;28;20500;-68
2021/01/24 12:28:14;;;;;;;2.78;0.50;;;12.90;67.60;;;;;;5053976;28;20051;-68
2021/01/24 12:30:40;;;;;;;2.03;0.40;;;13.00;67.60;;;;;;5054950;28;20039;-68
2021/01/24 12:33:10;;;;;;;2.78;0.30;;;12.90;67.40;;;;;;5054677;28;20127;-68
2021/01/24 12:35:37;;;;;;;3.15;0.50;;;12.80;67.20;;;;;;5052207;28;20051;-68
2021/01/24 12:38:03;;;;;;;4.03;0.50;;;12.70;67.30;;;;;;5035029;28;20044;-68
2021/01/24 12:40:29;;;;;;;3.72;0.50;;;12.60;67.20;;;;;;5034816;28;20037;-68
2021/01/24 12:42:55;;;;;;;3.10;0.47;;;12.60;67.20;;;;;;5034770;28;20044;-68
2021/01/24 12:45:21;;;;;;;2.58;0.38;;;12.60;67.20;;;;;;5035243;28;20033;-69
2021/01/24 12:47:47;;;;;;;2.72;0.28;;;12.70;66.90;;;;;;5034630;28;20479;-68
2021/01/24 12:50:12;;;;;;;0.70;0.20;;;12.80;66.40;;;;;;5035064;28;20041;-68
2021/01/24 12:52:38;;;;;;;3.10;0.30;;;12.80;66.30;;;;;;5035283;28;20041;-68